createdAt,value
2018-03-07T00:00:15.918Z,95257.07
2018-03-07T00:00:47.583Z,95257.94
2018-03-07T00:01:19.206Z,95257.27
2018-03-07T00:01:50.839Z,95252.73
2018-03-07T00:02:22.462Z,95254.56
2018-03-07T00:02:54.090Z,95264.91
2018-03-07T00:03:25.723Z,95259.40
2018-03-07T00:03:57.358Z,95254.79
2018-03-07T00:04:29.071Z,95256.48
2018-03-07T00:05:00.677Z,95257.91
2018-03-07T00:05:32.302Z,95260.97
2018-03-07T00:06:03.931Z,95254.19
2018-03-07T00:06:35.590Z,95252.99
2018-03-07T00:07:07.220Z,95257.34
2018-03-07T00:07:38.850Z,95256.14
2018-03-07T00:08:10.478Z,95255.80
2018-03-07T00:08:42.101Z,95257.94
2018-03-07T00:09:13.731Z,95255.88
2018-03-07T00:09:45.418Z,95252.84
2018-03-07T00:10:17.137Z,95252.39
2018-03-07T00:10:48.770Z,95255.05
2018-03-07T00:11:20.403Z,95253.06
2018-03-07T00:11:52.035Z,95251.61
2018-03-07T00:12:23.658Z,95254.27
2018-03-07T00:12:55.281Z,95258.62
2018-03-07T00:13:26.906Z,95256.93
2018-03-07T00:13:58.530Z,95257.34
2018-03-07T00:14:30.158Z,95253.03
2018-03-07T00:15:01.835Z,95251.04
2018-03-07T00:15:33.458Z,95249.81
2018-03-07T00:16:05.086Z,95250.38
2018-03-07T00:16:36.714Z,95252.96
2018-03-07T00:17:08.343Z,95247.64
2018-03-07T00:17:40.035Z,95254.80
2018-03-07T00:18:11.663Z,95291.37
2018-03-07T00:18:43.291Z,95253.55
2018-03-07T00:19:14.913Z,95250.19
2018-03-07T00:19:46.534Z,95253.22
2018-03-07T00:20:18.207Z,95255.02
2018-03-07T00:20:49.838Z,95252.58
2018-03-07T00:21:21.470Z,95252.13
2018-03-07T00:21:53.138Z,95251.38
2018-03-07T00:22:24.767Z,95249.77
2018-03-07T00:22:56.398Z,95242.98
2018-03-07T00:23:28.022Z,95253.06
2018-03-07T00:23:59.655Z,95248.57
2018-03-07T00:24:31.281Z,95250.36
2018-03-07T00:25:02.902Z,95250.77
2018-03-07T00:25:34.526Z,95250.33
2018-03-07T00:26:06.179Z,95251.60
2018-03-07T00:26:37.804Z,95252.39
2018-03-07T00:27:09.434Z,95248.67
2018-03-07T00:27:41.061Z,95251.19
2018-03-07T00:28:12.686Z,95248.23
2018-03-07T00:28:44.310Z,95246.58
2018-03-07T00:29:15.940Z,95246.54
2018-03-07T00:29:47.572Z,95246.58
2018-03-07T00:30:19.198Z,95250.41
2018-03-07T00:30:50.830Z,95243.09
2018-03-07T00:31:22.454Z,95246.44
2018-03-07T00:31:54.083Z,95247.37
2018-03-07T00:32:25.762Z,95247.67
2018-03-07T00:32:57.390Z,95247.18
2018-03-07T00:33:29.014Z,95245.80
2018-03-07T00:34:00.647Z,95243.47
2018-03-07T00:34:32.270Z,95242.05
2018-03-07T00:35:03.906Z,95246.51
2018-03-07T00:35:35.535Z,95244.56
2018-03-07T00:36:07.166Z,95249.42
2018-03-07T00:36:38.794Z,95246.28
2018-03-07T00:37:10.418Z,95240.36
2018-03-07T00:37:42.081Z,95249.99
2018-03-07T00:38:13.710Z,95243.99
2018-03-07T00:38:45.334Z,95245.72
2018-03-07T00:39:16.962Z,95248.16
2018-03-07T00:39:48.586Z,95245.61
2018-03-07T00:40:20.214Z,95245.08
2018-03-07T00:40:51.838Z,95240.84
2018-03-07T00:41:23.466Z,95247.81
2018-03-07T00:41:55.090Z,95242.11
2018-03-07T00:42:26.721Z,95245.53
2018-03-07T00:42:58.347Z,95239.90
2018-03-07T00:43:29.974Z,95245.67
2018-03-07T00:44:01.597Z,95243.05
2018-03-07T00:44:33.230Z,95242.03
2018-03-07T00:45:04.854Z,95239.36
2018-03-07T00:45:36.478Z,95237.16
2018-03-07T00:46:08.102Z,95247.05
2018-03-07T00:46:39.730Z,95237.07
2018-03-07T00:47:11.361Z,95242.97
2018-03-07T00:47:43.039Z,95246.41
2018-03-07T00:48:14.673Z,95237.98
2018-03-07T00:48:46.298Z,95243.53
2018-03-07T00:49:17.927Z,95243.48
2018-03-07T00:49:49.550Z,95245.33
2018-03-07T00:50:21.174Z,95238.28
2018-03-07T00:50:52.798Z,95237.48
2018-03-07T00:51:24.423Z,95243.08
2018-03-07T00:51:56.056Z,95243.19
2018-03-07T00:52:27.682Z,95240.41
2018-03-07T00:52:59.354Z,95241.84
2018-03-07T00:53:30.983Z,95238.09
2018-03-07T00:54:02.611Z,95240.98
2018-03-07T00:54:34.238Z,95236.52
2018-03-07T00:55:05.862Z,95242.36
2018-03-07T00:55:37.486Z,95242.77
2018-03-07T00:56:09.151Z,95248.22
2018-03-07T00:56:40.779Z,95243.08
2018-03-07T00:57:12.402Z,95242.70
2018-03-07T00:57:44.026Z,95242.30
2018-03-07T00:58:15.658Z,95241.80
2018-03-07T00:58:47.313Z,95247.31
2018-03-07T00:59:18.982Z,95245.63
2018-03-07T00:59:50.608Z,95237.16
2018-03-07T01:00:22.233Z,95237.94
2018-03-07T01:00:53.863Z,95241.80
2018-03-07T01:01:25.494Z,95240.83
2018-03-07T01:01:57.121Z,95239.48
2018-03-07T01:02:28.741Z,95239.41
2018-03-07T01:03:00.370Z,95240.27
2018-03-07T01:03:31.995Z,95238.09
2018-03-07T01:04:03.627Z,95241.09
2018-03-07T01:04:35.305Z,95244.05
2018-03-07T01:05:06.925Z,95243.94
2018-03-07T01:05:38.577Z,95244.05
2018-03-07T01:06:10.207Z,95241.69
2018-03-07T01:06:41.834Z,95242.59
2018-03-07T01:07:13.458Z,95238.73
2018-03-07T01:07:45.086Z,95240.34
2018-03-07T01:08:16.714Z,95241.77
2018-03-07T01:08:48.341Z,95242.36
2018-03-07T01:09:19.969Z,95243.64
2018-03-07T01:09:51.590Z,95243.19
2018-03-07T01:10:23.213Z,95241.99
2018-03-07T01:10:54.843Z,95242.56
2018-03-07T01:11:26.470Z,95241.47
2018-03-07T01:11:58.094Z,95237.61
2018-03-07T01:12:29.722Z,95238.96
2018-03-07T01:13:01.351Z,95234.88
2018-03-07T01:13:32.974Z,95235.59
2018-03-07T01:14:04.602Z,95239.38
2018-03-07T01:14:36.229Z,95234.05
2018-03-07T01:15:07.906Z,95235.81
2018-03-07T01:15:39.535Z,95234.80
2018-03-07T01:16:11.166Z,95234.58
2018-03-07T01:16:42.789Z,95237.17
2018-03-07T01:17:14.418Z,95239.38
2018-03-07T01:17:46.062Z,95231.84
2018-03-07T01:18:17.691Z,95234.88
2018-03-07T01:18:49.313Z,95234.05
2018-03-07T01:19:20.942Z,95234.31
2018-03-07T01:19:52.575Z,95233.64
2018-03-07T01:20:24.250Z,95238.70
2018-03-07T01:20:55.879Z,95236.69
2018-03-07T01:21:27.523Z,95233.95
2018-03-07T01:21:59.146Z,95236.08
2018-03-07T01:22:30.769Z,95234.02
2018-03-07T01:23:02.390Z,95234.44
2018-03-07T01:23:34.033Z,95233.66
2018-03-07T01:24:05.658Z,95234.89
2018-03-07T01:24:37.281Z,95236.72
2018-03-07T01:25:08.911Z,95238.59
2018-03-07T01:25:40.583Z,95228.70
2018-03-07T01:26:12.222Z,95223.75
2018-03-07T01:26:43.845Z,95227.99
2018-03-07T01:27:15.475Z,95231.52
2018-03-07T01:27:47.101Z,95227.69
2018-03-07T01:28:18.786Z,95230.65
2018-03-07T01:28:50.415Z,95230.91
2018-03-07T01:29:22.086Z,95232.27
2018-03-07T01:29:53.709Z,95225.55
2018-03-07T01:30:25.338Z,95229.83
2018-03-07T01:30:56.966Z,95228.10
2018-03-07T01:31:28.589Z,95234.06
2018-03-07T01:32:00.209Z,95232.57
2018-03-07T01:32:31.836Z,95229.20
2018-03-07T01:33:03.466Z,95231.22
2018-03-07T01:33:35.142Z,95228.00
2018-03-07T01:34:06.766Z,95227.92
2018-03-07T01:34:38.394Z,95228.41
2018-03-07T01:35:10.021Z,95230.28
2018-03-07T01:35:41.642Z,95232.00
2018-03-07T01:36:13.270Z,95226.88
2018-03-07T01:36:44.903Z,95228.27
2018-03-07T01:37:16.542Z,95226.05
2018-03-07T01:37:48.170Z,95226.19
2018-03-07T01:38:19.798Z,95226.58
2018-03-07T01:38:51.466Z,95227.77
2018-03-07T01:39:23.094Z,95223.58
2018-03-07T01:39:54.721Z,95218.03
2018-03-07T01:40:26.349Z,95220.16
2018-03-07T01:40:57.994Z,95224.96
2018-03-07T01:41:29.618Z,95223.69
2018-03-07T01:42:01.247Z,95224.02
2018-03-07T01:42:32.870Z,95223.27
2018-03-07T01:43:04.501Z,95221.59
2018-03-07T01:43:36.126Z,95222.86
2018-03-07T01:44:07.790Z,95226.98
2018-03-07T01:44:39.414Z,95226.80
2018-03-07T01:45:11.038Z,95218.66
2018-03-07T01:45:42.694Z,95219.19
2018-03-07T01:46:14.326Z,95221.28
2018-03-07T01:46:45.949Z,95224.33
2018-03-07T01:47:17.573Z,95224.25
2018-03-07T01:47:49.202Z,95220.88
2018-03-07T01:48:20.833Z,95217.95
2018-03-07T01:48:52.467Z,95220.46
2018-03-07T01:49:24.090Z,95224.44
2018-03-07T01:49:55.715Z,95221.22
2018-03-07T01:50:27.343Z,95220.27
2018-03-07T01:50:58.969Z,95218.66
2018-03-07T01:51:30.637Z,95220.42
2018-03-07T01:52:02.285Z,95224.06
2018-03-07T01:52:33.919Z,95216.86
2018-03-07T01:53:05.551Z,95206.30
2018-03-07T01:53:37.178Z,95221.88
2018-03-07T01:54:08.802Z,95221.44
2018-03-07T01:54:40.466Z,95218.36
2018-03-07T01:55:12.142Z,95217.91
2018-03-07T01:55:43.761Z,95223.31
2018-03-07T01:56:15.395Z,95210.38
2018-03-07T01:56:47.022Z,95214.80
2018-03-07T01:57:18.652Z,95218.93
2018-03-07T01:57:50.274Z,95221.85
2018-03-07T01:58:21.905Z,95215.59
2018-03-07T01:58:53.538Z,95217.54
2018-03-07T01:59:25.174Z,95217.47
2018-03-07T01:59:56.798Z,95213.00
2018-03-07T02:00:28.470Z,95215.52
2018-03-07T02:01:00.099Z,95221.36
2018-03-07T02:01:31.763Z,95217.55
2018-03-07T02:02:03.393Z,95220.54
2018-03-07T02:02:35.018Z,95214.73
2018-03-07T02:03:06.641Z,95213.00
2018-03-07T02:03:38.266Z,95210.83
2018-03-07T02:04:09.890Z,95212.52
2018-03-07T02:04:41.578Z,95215.86
2018-03-07T02:05:13.202Z,95213.98
2018-03-07T02:05:44.827Z,95215.97
2018-03-07T02:06:16.462Z,95219.18
2018-03-07T02:06:48.095Z,95212.66
2018-03-07T02:07:19.725Z,95218.20
2018-03-07T02:07:51.355Z,95214.42
2018-03-07T02:08:22.979Z,95220.45
2018-03-07T02:08:54.601Z,95218.66
2018-03-07T02:09:26.226Z,95222.78
2018-03-07T02:09:57.901Z,95214.38
2018-03-07T02:10:29.523Z,95221.73
2018-03-07T02:11:01.187Z,95215.25
2018-03-07T02:11:32.815Z,95224.80
2018-03-07T02:12:04.438Z,95218.31
2018-03-07T02:12:36.061Z,95220.00
2018-03-07T02:13:07.690Z,95220.83
2018-03-07T02:13:39.310Z,95218.84
2018-03-07T02:14:10.934Z,95220.75
2018-03-07T02:14:42.566Z,95216.97
2018-03-07T02:15:14.238Z,95225.29
2018-03-07T02:15:45.861Z,95215.62
2018-03-07T02:16:17.485Z,95215.62
2018-03-07T02:16:49.158Z,95216.03
2018-03-07T02:17:20.782Z,95216.11
2018-03-07T02:17:52.412Z,95214.01
2018-03-07T02:18:24.038Z,95215.36
2018-03-07T02:18:55.666Z,95206.84
2018-03-07T02:19:27.290Z,95220.45
2018-03-07T02:19:58.929Z,95212.70
2018-03-07T02:20:30.553Z,95213.68
2018-03-07T02:21:02.181Z,95205.61
2018-03-07T02:21:33.814Z,95213.79
2018-03-07T02:22:05.481Z,95210.83
2018-03-07T02:22:37.108Z,95214.55
2018-03-07T02:23:08.734Z,95209.44
2018-03-07T02:23:40.361Z,95212.52
2018-03-07T02:24:11.990Z,95206.22
2018-03-07T02:24:43.662Z,95216.79
2018-03-07T02:25:15.290Z,95207.76
2018-03-07T02:25:46.931Z,95207.76
2018-03-07T02:26:18.554Z,95204.02
2018-03-07T02:26:50.183Z,95209.07
2018-03-07T02:27:21.862Z,95209.07
2018-03-07T02:27:53.486Z,95207.64
2018-03-07T02:28:25.110Z,95211.05
2018-03-07T02:28:56.734Z,95209.41
2018-03-07T02:29:28.361Z,95211.95
2018-03-07T02:29:59.982Z,95210.56
2018-03-07T02:30:31.610Z,95210.16
2018-03-07T02:31:03.244Z,95209.33
2018-03-07T02:31:34.874Z,95211.09
2018-03-07T02:32:06.498Z,95208.14
2018-03-07T02:32:38.173Z,95211.92
2018-03-07T02:33:09.804Z,95195.58
2018-03-07T02:33:41.429Z,95216.94
2018-03-07T02:34:13.054Z,95213.05
2018-03-07T02:34:44.682Z,95215.14
2018-03-07T02:35:16.313Z,95216.72
2018-03-07T02:35:47.939Z,95212.52
2018-03-07T02:36:19.566Z,95213.38
2018-03-07T02:36:51.250Z,95215.06
2018-03-07T02:37:22.879Z,95218.81
2018-03-07T02:37:54.507Z,95211.36
2018-03-07T02:38:26.137Z,95219.52
2018-03-07T02:38:57.770Z,95219.16
2018-03-07T02:39:29.399Z,95213.64
2018-03-07T02:40:01.028Z,95213.61
2018-03-07T02:40:32.658Z,95211.02
2018-03-07T02:41:04.315Z,95211.77
2018-03-07T02:41:35.947Z,95218.55
2018-03-07T02:42:07.618Z,95219.87
2018-03-07T02:42:39.243Z,95212.14
2018-03-07T02:43:10.875Z,95213.42
2018-03-07T02:43:42.507Z,95216.16
2018-03-07T02:44:14.129Z,95213.83
2018-03-07T02:44:45.760Z,95214.77
2018-03-07T02:45:17.468Z,95221.40
2018-03-07T02:45:49.082Z,95216.52
2018-03-07T02:46:20.711Z,95212.85
2018-03-07T02:46:52.339Z,95215.59
2018-03-07T02:47:23.971Z,95216.05
2018-03-07T02:47:55.646Z,95214.95
2018-03-07T02:48:27.278Z,95219.94
2018-03-07T02:48:58.950Z,95209.30
2018-03-07T02:49:30.581Z,95214.05
2018-03-07T02:50:02.206Z,95218.36
2018-03-07T02:50:33.830Z,95217.35
2018-03-07T02:51:05.463Z,95215.48
2018-03-07T02:51:37.131Z,95217.95
2018-03-07T02:52:08.755Z,95219.67
2018-03-07T02:52:40.378Z,95223.13
2018-03-07T02:53:12.051Z,95222.72
2018-03-07T02:53:43.686Z,95218.14
2018-03-07T02:54:15.319Z,95217.95
2018-03-07T02:54:46.943Z,95213.72
2018-03-07T02:55:18.822Z,95218.36
2018-03-07T02:55:50.450Z,95217.09
2018-03-07T02:56:22.074Z,95214.39
2018-03-07T02:56:53.704Z,95216.67
2018-03-07T02:57:25.334Z,95211.99
2018-03-07T02:57:56.961Z,95218.47
2018-03-07T02:58:28.586Z,95217.88
2018-03-07T02:59:00.215Z,95216.52
2018-03-07T02:59:31.844Z,95216.45
2018-03-07T03:00:03.471Z,95220.34
2018-03-07T03:00:35.143Z,95220.49
2018-03-07T03:01:06.775Z,95219.94
2018-03-07T03:01:38.407Z,95218.92
2018-03-07T03:02:10.031Z,95219.78
2018-03-07T03:02:41.658Z,95216.37
2018-03-07T03:03:13.285Z,95215.43
2018-03-07T03:03:44.907Z,95200.49
2018-03-07T03:04:16.547Z,95220.80
2018-03-07T03:04:48.170Z,95219.22
2018-03-07T03:05:19.794Z,95216.72
2018-03-07T03:05:51.427Z,95218.52
2018-03-07T03:06:23.095Z,95216.94
2018-03-07T03:06:54.723Z,95215.93
2018-03-07T03:07:26.346Z,95218.03
2018-03-07T03:07:57.970Z,95217.77
2018-03-07T03:08:29.634Z,95222.48
2018-03-07T03:09:01.259Z,95219.59
2018-03-07T03:09:32.881Z,95222.97
2018-03-07T03:10:04.501Z,95220.16
2018-03-07T03:10:36.130Z,95218.55
2018-03-07T03:11:07.754Z,95220.69
2018-03-07T03:11:39.378Z,95219.86
2018-03-07T03:12:11.002Z,95221.66
2018-03-07T03:12:42.682Z,95211.95
2018-03-07T03:13:14.314Z,95219.45
2018-03-07T03:13:45.941Z,95218.77
2018-03-07T03:14:17.569Z,95218.84
2018-03-07T03:14:49.190Z,95216.11
2018-03-07T03:15:20.814Z,95220.97
2018-03-07T03:15:52.442Z,95219.84
2018-03-07T03:16:24.070Z,95220.75
2018-03-07T03:16:55.698Z,95224.72
2018-03-07T03:17:27.326Z,95215.84
2018-03-07T03:17:59.238Z,95222.77
2018-03-07T03:18:30.863Z,95227.44
2018-03-07T03:19:02.538Z,95226.99
2018-03-07T03:19:34.164Z,95223.59
2018-03-07T03:20:05.791Z,95219.80
2018-03-07T03:20:37.418Z,95222.27
2018-03-07T03:21:09.046Z,95221.03
2018-03-07T03:21:40.677Z,95221.22
2018-03-07T03:22:12.301Z,95224.59
2018-03-07T03:22:43.930Z,95225.94
2018-03-07T03:23:15.560Z,95222.13
2018-03-07T03:23:47.182Z,95224.59
2018-03-07T03:24:18.871Z,95224.86
2018-03-07T03:24:50.495Z,95222.13
2018-03-07T03:25:22.126Z,95218.41
2018-03-07T03:25:53.754Z,95216.61
2018-03-07T03:26:25.378Z,95222.45
2018-03-07T03:26:57.007Z,95222.95
2018-03-07T03:27:28.638Z,95222.05
2018-03-07T03:28:00.266Z,95226.77
2018-03-07T03:28:31.893Z,95223.88
2018-03-07T03:29:03.523Z,95225.08
2018-03-07T03:29:35.199Z,95221.22
2018-03-07T03:30:06.823Z,95221.11
2018-03-07T03:30:38.454Z,95226.36
2018-03-07T03:31:10.087Z,95222.98
2018-03-07T03:31:41.718Z,95217.38
2018-03-07T03:32:13.342Z,95222.88
2018-03-07T03:32:44.971Z,95225.50
2018-03-07T03:33:16.608Z,95222.84
2018-03-07T03:33:48.246Z,95220.75
2018-03-07T03:34:19.870Z,95219.84
2018-03-07T03:34:51.550Z,95219.51
2018-03-07T03:35:23.169Z,95218.02
2018-03-07T03:35:54.793Z,95218.73
2018-03-07T03:36:26.414Z,95224.80
2018-03-07T03:36:58.036Z,95221.84
2018-03-07T03:37:29.666Z,95217.11
2018-03-07T03:38:01.294Z,95222.52
2018-03-07T03:38:32.918Z,95220.27
2018-03-07T03:39:04.546Z,95223.60
2018-03-07T03:39:36.169Z,95215.44
2018-03-07T03:40:07.850Z,95222.28
2018-03-07T03:40:39.483Z,95224.69
2018-03-07T03:41:12.131Z,95217.20
2018-03-07T03:41:43.762Z,95212.63
2018-03-07T03:42:15.388Z,95218.89
2018-03-07T03:42:47.010Z,95218.84
2018-03-07T03:43:18.633Z,95213.38
2018-03-07T03:43:50.262Z,95216.52
2018-03-07T03:44:21.886Z,95214.77
2018-03-07T03:44:53.505Z,95218.88
2018-03-07T03:45:25.126Z,95218.25
2018-03-07T03:45:56.750Z,95224.63
2018-03-07T03:46:28.384Z,95221.70
2018-03-07T03:47:00.012Z,95218.81
2018-03-07T03:47:31.642Z,95219.67
2018-03-07T03:48:03.269Z,95219.30
2018-03-07T03:48:34.894Z,95221.36
2018-03-07T03:49:06.526Z,95220.42
2018-03-07T03:49:38.159Z,95226.34
2018-03-07T03:50:09.783Z,95217.84
2018-03-07T03:50:41.458Z,95224.63
2018-03-07T03:51:13.082Z,95222.97
2018-03-07T03:51:44.711Z,95220.02
2018-03-07T03:52:16.340Z,95225.62
2018-03-07T03:52:47.978Z,95226.49
2018-03-07T03:53:19.607Z,95224.43
2018-03-07T03:53:51.231Z,95223.95
2018-03-07T03:54:22.857Z,95221.36
2018-03-07T03:54:54.482Z,95222.15
2018-03-07T03:55:26.106Z,95225.06
2018-03-07T03:55:57.785Z,95227.58
2018-03-07T03:56:29.417Z,95224.47
2018-03-07T03:57:01.046Z,95219.94
2018-03-07T03:57:32.678Z,95225.26
2018-03-07T03:58:04.302Z,95230.36
2018-03-07T03:58:35.935Z,95225.64
2018-03-07T03:59:07.561Z,95230.39
2018-03-07T03:59:39.186Z,95227.02
2018-03-07T04:00:10.814Z,95227.88
2018-03-07T04:00:42.442Z,95224.28
2018-03-07T04:01:14.117Z,95228.97
2018-03-07T04:01:45.746Z,95229.80
2018-03-07T04:02:17.369Z,95230.24
2018-03-07T04:02:48.994Z,95228.66
2018-03-07T04:03:20.619Z,95233.24
2018-03-07T04:03:52.242Z,95229.42
2018-03-07T04:04:23.871Z,95223.98
2018-03-07T04:04:55.494Z,95231.78
2018-03-07T04:05:27.117Z,95224.14
2018-03-07T04:05:58.738Z,95223.64
2018-03-07T04:06:30.410Z,95234.18
2018-03-07T04:07:02.034Z,95227.05
2018-03-07T04:07:33.662Z,95227.92
2018-03-07T04:08:05.285Z,95226.05
2018-03-07T04:08:36.909Z,95229.38
2018-03-07T04:09:08.542Z,95226.12
2018-03-07T04:09:40.166Z,95232.45
2018-03-07T04:10:11.794Z,95231.21
2018-03-07T04:10:43.414Z,95229.38
2018-03-07T04:11:15.043Z,95233.69
2018-03-07T04:11:46.715Z,95232.71
2018-03-07T04:12:18.514Z,95227.13
2018-03-07T04:12:50.154Z,95227.02
2018-03-07T04:13:21.829Z,95232.56
2018-03-07T04:13:53.459Z,95231.70
2018-03-07T04:14:25.081Z,95230.28
2018-03-07T04:14:56.706Z,95234.38
2018-03-07T04:15:28.339Z,95226.46
2018-03-07T04:15:59.962Z,95233.05
2018-03-07T04:16:31.585Z,95230.51
2018-03-07T04:17:03.206Z,95229.23
2018-03-07T04:17:34.830Z,95232.68
2018-03-07T04:18:06.458Z,95228.97
2018-03-07T04:18:38.134Z,95228.06
2018-03-07T04:19:09.762Z,95232.48
2018-03-07T04:19:41.391Z,95230.80
2018-03-07T04:20:15.030Z,95232.42
2018-03-07T04:20:46.662Z,95233.69
2018-03-07T04:21:18.292Z,95232.38
2018-03-07T04:21:49.914Z,95228.30
2018-03-07T04:22:21.581Z,95234.17
2018-03-07T04:22:53.210Z,95226.98
2018-03-07T04:23:24.837Z,95227.32
2018-03-07T04:23:56.514Z,95232.38
2018-03-07T04:24:28.143Z,95227.62
2018-03-07T04:24:59.771Z,95231.66
2018-03-07T04:25:31.403Z,95232.42
2018-03-07T04:26:03.034Z,95230.66
2018-03-07T04:26:34.662Z,95232.42
2018-03-07T04:27:06.294Z,95231.22
2018-03-07T04:27:37.922Z,95236.72
2018-03-07T04:28:09.546Z,95230.88
2018-03-07T04:28:41.169Z,95225.48
2018-03-07T04:29:12.842Z,95235.27
2018-03-07T04:29:44.466Z,95230.16
2018-03-07T04:30:16.093Z,95234.55
2018-03-07T04:30:47.718Z,95234.81
2018-03-07T04:31:19.342Z,95231.44
2018-03-07T04:31:50.971Z,95233.27
2018-03-07T04:32:22.594Z,95234.77
2018-03-07T04:32:54.213Z,95231.89
2018-03-07T04:33:25.834Z,95231.44
2018-03-07T04:33:57.462Z,95230.62
2018-03-07T04:34:29.138Z,95231.14
2018-03-07T04:35:00.762Z,95233.72
2018-03-07T04:35:32.395Z,95230.50
2018-03-07T04:36:04.026Z,95230.39
2018-03-07T04:36:35.650Z,95235.63
2018-03-07T04:37:07.274Z,95232.19
2018-03-07T04:37:38.903Z,95230.09
2018-03-07T04:38:10.538Z,95230.91
2018-03-07T04:38:42.171Z,95228.81
2018-03-07T04:39:13.794Z,95231.40
2018-03-07T04:39:46.187Z,95230.13
2018-03-07T04:40:17.859Z,95228.14
2018-03-07T04:40:49.481Z,95232.41
2018-03-07T04:41:21.116Z,95234.55
2018-03-07T04:41:52.746Z,95233.34
2018-03-07T04:42:24.374Z,95229.52
2018-03-07T04:42:56.002Z,95232.70
2018-03-07T04:43:27.626Z,95233.01
2018-03-07T04:43:59.255Z,95230.16
2018-03-07T04:44:30.886Z,95226.89
2018-03-07T04:45:02.582Z,95227.23
2018-03-07T04:45:34.210Z,95231.92
2018-03-07T04:46:05.834Z,95233.19
2018-03-07T04:46:37.459Z,95230.75
2018-03-07T04:47:09.082Z,95236.74
2018-03-07T04:47:40.702Z,95233.67
2018-03-07T04:48:12.330Z,95231.34
2018-03-07T04:48:43.958Z,95238.43
2018-03-07T04:49:15.605Z,95235.06
2018-03-07T04:49:47.234Z,95235.28
2018-03-07T04:50:19.034Z,95237.45
2018-03-07T04:50:50.659Z,95234.41
2018-03-07T04:51:22.290Z,95232.17
2018-03-07T04:51:53.924Z,95234.72
2018-03-07T04:52:25.549Z,95240.27
2018-03-07T04:52:57.182Z,95240.27
2018-03-07T04:53:28.805Z,95236.44
2018-03-07T04:54:00.430Z,95229.66
2018-03-07T04:54:32.058Z,95235.84
2018-03-07T04:55:03.686Z,95233.44
2018-03-07T04:55:35.357Z,95233.93
2018-03-07T04:56:06.987Z,95235.20
2018-03-07T04:56:38.610Z,95232.89
2018-03-07T04:57:10.274Z,95233.00
2018-03-07T04:57:41.902Z,95234.20
2018-03-07T04:58:13.522Z,95237.30
2018-03-07T04:58:45.145Z,95228.00
2018-03-07T04:59:16.767Z,95236.03
2018-03-07T04:59:48.394Z,95233.52
2018-03-07T05:00:20.018Z,95238.02
2018-03-07T05:00:51.701Z,95231.16
2018-03-07T05:01:23.330Z,95235.88
2018-03-07T05:01:54.960Z,95239.67
2018-03-07T05:02:26.591Z,95228.31
2018-03-07T05:02:58.219Z,95238.39
2018-03-07T05:03:29.853Z,95236.26
2018-03-07T05:04:01.483Z,95237.23
2018-03-07T05:04:33.116Z,95235.44
2018-03-07T05:05:04.751Z,95243.48
2018-03-07T05:05:36.383Z,95240.67
2018-03-07T05:06:08.052Z,95241.27
2018-03-07T05:06:39.681Z,95240.62
2018-03-07T05:07:11.310Z,95243.92
2018-03-07T05:07:42.946Z,95236.50
2018-03-07T05:08:14.575Z,95238.67
2018-03-07T05:08:46.335Z,95241.41
2018-03-07T05:09:17.961Z,95241.47
2018-03-07T05:09:49.593Z,95237.80
2018-03-07T05:10:21.262Z,95237.84
2018-03-07T05:10:52.894Z,95239.56
2018-03-07T05:11:24.519Z,95243.00
2018-03-07T05:11:56.147Z,95241.80
2018-03-07T05:12:27.871Z,95240.60
2018-03-07T05:12:59.542Z,95239.40
2018-03-07T05:13:31.170Z,95238.72
2018-03-07T05:14:02.798Z,95240.89
2018-03-07T05:14:34.430Z,95242.58
2018-03-07T05:15:06.063Z,95237.89
2018-03-07T05:15:37.694Z,95248.16
2018-03-07T05:16:09.322Z,95241.11
2018-03-07T05:16:40.947Z,95240.66
2018-03-07T05:17:12.621Z,95244.44
2018-03-07T05:17:44.241Z,95246.27
2018-03-07T05:18:15.866Z,95249.16
2018-03-07T05:18:47.541Z,95247.39
2018-03-07T05:19:19.149Z,95251.18
2018-03-07T05:19:50.779Z,95249.53
2018-03-07T05:20:22.401Z,95244.06
2018-03-07T05:20:54.026Z,95244.03
2018-03-07T05:21:25.654Z,95248.94
2018-03-07T05:21:57.286Z,95248.53
2018-03-07T05:22:28.954Z,95239.51
2018-03-07T05:23:00.578Z,95249.30
2018-03-07T05:23:32.206Z,95245.06
2018-03-07T05:24:03.826Z,95243.57
2018-03-07T05:24:35.458Z,95244.84
2018-03-07T05:25:07.090Z,95246.84
2018-03-07T05:25:38.713Z,95239.05
2018-03-07T05:26:10.345Z,95249.12
2018-03-07T05:26:41.966Z,95247.86
2018-03-07T05:27:13.639Z,95242.05
2018-03-07T05:27:45.266Z,95246.39
2018-03-07T05:28:16.890Z,95240.92
2018-03-07T05:28:48.514Z,95249.11
2018-03-07T05:29:20.142Z,95243.69
2018-03-07T05:29:51.768Z,95247.42
2018-03-07T05:30:23.396Z,95249.94
2018-03-07T05:30:55.062Z,95251.11
2018-03-07T05:31:26.700Z,95249.69
2018-03-07T05:31:58.337Z,95249.12
2018-03-07T05:32:29.969Z,95245.72
2018-03-07T05:33:01.650Z,95251.67
2018-03-07T05:33:33.273Z,95250.89
2018-03-07T05:34:04.898Z,95244.45
2018-03-07T05:34:36.522Z,95250.33
2018-03-07T05:35:08.148Z,95248.12
2018-03-07T05:35:39.792Z,95246.77
2018-03-07T05:36:11.422Z,95253.45
2018-03-07T05:36:43.050Z,95251.77
2018-03-07T05:37:14.679Z,95247.91
2018-03-07T05:37:46.306Z,95251.35
2018-03-07T05:38:18.170Z,95250.00
2018-03-07T05:38:49.794Z,95255.40
2018-03-07T05:39:21.414Z,95254.46
2018-03-07T05:39:53.042Z,95249.22
2018-03-07T05:40:24.674Z,95248.48
2018-03-07T05:40:56.298Z,95248.62
2018-03-07T05:41:27.927Z,95249.38
2018-03-07T05:41:59.554Z,95253.16
2018-03-07T05:42:31.182Z,95255.61
2018-03-07T05:43:02.811Z,95250.09
2018-03-07T05:43:34.477Z,95250.66
2018-03-07T05:44:06.098Z,95251.38
2018-03-07T05:44:37.721Z,95248.75
2018-03-07T05:45:09.342Z,95256.88
2018-03-07T05:45:40.970Z,95254.33
2018-03-07T05:46:12.604Z,95252.12
2018-03-07T05:46:44.253Z,95256.88
2018-03-07T05:47:15.925Z,95254.33
2018-03-07T05:47:47.550Z,95254.94
2018-03-07T05:48:19.174Z,95255.77
2018-03-07T05:48:50.810Z,95252.77
2018-03-07T05:49:22.438Z,95254.56
2018-03-07T05:49:54.062Z,95254.04
2018-03-07T05:50:25.690Z,95249.09
2018-03-07T05:50:57.314Z,95251.94
2018-03-07T05:51:28.942Z,95253.14
2018-03-07T05:52:00.565Z,95257.75
2018-03-07T05:52:32.230Z,95256.03
2018-03-07T05:53:03.850Z,95259.03
2018-03-07T05:53:35.473Z,95260.22
2018-03-07T05:54:07.102Z,95261.95
2018-03-07T05:54:38.726Z,95262.66
2018-03-07T05:55:10.354Z,95256.85
2018-03-07T05:55:41.982Z,95262.47
2018-03-07T05:56:13.614Z,95264.23
2018-03-07T05:56:45.238Z,95258.83
2018-03-07T05:57:16.862Z,95253.41
2018-03-07T05:57:48.535Z,95259.77
2018-03-07T05:58:20.215Z,95258.88
2018-03-07T05:58:51.842Z,95262.69
2018-03-07T05:59:23.470Z,95259.05
2018-03-07T05:59:55.095Z,95259.02
2018-03-07T06:00:26.723Z,95263.93
2018-03-07T06:00:58.346Z,95261.42
2018-03-07T06:01:29.970Z,95264.42
2018-03-07T06:02:01.598Z,95263.41
2018-03-07T06:02:33.239Z,95259.73
2018-03-07T06:03:04.866Z,95267.19
2018-03-07T06:03:36.497Z,95265.81
2018-03-07T06:04:08.126Z,95267.05
2018-03-07T06:04:39.751Z,95263.78
2018-03-07T06:05:11.373Z,95266.06
2018-03-07T06:05:43.046Z,95267.60
2018-03-07T06:06:14.667Z,95268.47
2018-03-07T06:06:46.294Z,95265.47
2018-03-07T06:07:17.945Z,95266.41
2018-03-07T06:07:49.571Z,95271.23
2018-03-07T06:08:21.202Z,95274.80
2018-03-07T06:08:52.836Z,95268.68
2018-03-07T06:09:24.510Z,95275.46
2018-03-07T06:09:56.134Z,95271.38
2018-03-07T06:10:27.802Z,95272.31
2018-03-07T06:10:59.425Z,95275.04
2018-03-07T06:11:31.058Z,95278.38